Terminal Aerodrome Forecast
Issued by NWS

Home | Current Version | Previous Version | Text Only | Print | Product List | Glossary Off
Versions: 1 2 3 4 5 6 7 8 9 10 11 12 13 14

000
FTUS45 KGGW 292320
TAFGDV
TAF
KGDV 292320Z 3000/3024 12011KT P6SM BKN060
     FM300600 05006KT P6SM BKN060
     FM301200 04009KT P6SM SCT120
     FM301800 07013KT P6SM SCT070
      AMD LTD TO CLD VIS AND WIND=

USA.gov is the U.S. government's official web portal to all federal, state and local government web resources and services.